Time;durP1;ratioP1;P1;durP2;ratioP2;P2;SDS_P1;SDS_P2;PMS_P1;PMS_P2;Temp;Humidity;BMP_temperature;BMP_pressure;BME280_temperature;BME280_humidity;BME280_pressure;Samples;Min_cycle;Max_cycle;Signal;HPM_P1;HPM_P2
2022/06/03 00:01:19;;;;;;;6.40;4.80;;;10.10;99.90;;;;;;4970024;28;20084;-79
2022/06/03 00:03:56;;;;;;;9.13;4.80;;;10.10;99.90;;;;;;4990872;28;20520;-79
2022/06/03 00:06:37;;;;;;;8.77;4.97;;;10.00;99.90;;;;;;4993178;28;20057;-80
2022/06/03 00:09:33;;;;;;;9.10;4.80;;;10.00;99.90;;;;;;4998954;28;20045;-79
2022/06/03 00:12:15;;;;;;;11.17;4.97;;;10.00;99.90;;;;;;4987469;28;20038;-79
2022/06/03 00:15:01;;;;;;;10.10;4.87;;;10.00;99.90;;;;;;5020731;28;20159;-80
2022/06/03 00:18:03;;;;;;;11.43;5.13;;;10.00;99.90;;;;;;4977868;28;20038;-80
2022/06/03 00:20:54;;;;;;;7.53;4.83;;;10.00;99.90;;;;;;4982211;28;20045;-79
2022/06/03 00:23:52;;;;;;;5.67;4.93;;;10.00;99.90;;;;;;5013763;28;20057;-79
2022/06/03 00:26:35;;;;;;;7.17;5.27;;;10.00;99.90;;;;;;4973752;28;20495;-80
2022/06/03 00:29:20;;;;;;;7.65;5.10;;;10.00;99.90;;;;;;4977467;28;20042;-80
2022/06/03 00:32:09;;;;;;;10.25;5.25;;;9.90;99.90;;;;;;4994344;28;20034;-80
2022/06/03 00:34:56;;;;;;;10.00;5.33;;;9.90;99.90;;;;;;4937823;28;20078;-79
2022/06/03 00:37:31;;;;;;;9.00;5.63;;;9.90;99.90;;;;;;4991519;28;20054;-80
2022/06/03 00:40:09;;;;;;;9.10;5.60;;;9.80;99.90;;;;;;5001703;28;20050;-80
2022/06/03 00:42:54;;;;;;;12.67;5.33;;;9.80;99.90;;;;;;4991953;28;20133;-80
2022/06/03 00:45:40;;;;;;;9.17;5.20;;;9.80;99.90;;;;;;4970822;28;20050;-80
2022/06/03 00:48:35;;;;;;;10.53;5.47;;;9.80;99.90;;;;;;4984956;28;20496;-79
2022/06/03 00:51:18;;;;;;;8.93;4.90;;;9.80;99.90;;;;;;4968110;28;20046;-80
2022/06/03 00:54:00;;;;;;;8.30;5.25;;;9.70;99.90;;;;;;4976681;28;20045;-80
2022/06/03 00:56:52;;;;;;;8.53;5.80;;;9.70;99.90;;;;;;4987918;28;20507;-80
2022/06/03 00:59:43;;;;;;;7.10;4.93;;;9.70;99.90;;;;;;4991256;28;20111;-79
2022/06/03 01:02:31;;;;;;;8.17;5.07;;;9.70;99.90;;;;;;4970365;28;20496;-79
2022/06/03 01:05:09;;;;;;;10.10;5.60;;;9.60;99.90;;;;;;4985697;28;20117;-79
2022/06/03 01:07:51;;;;;;;7.73;6.17;;;9.60;99.90;;;;;;4974970;28;20041;-80
2022/06/03 01:10:52;;;;;;;9.17;5.20;;;9.60;99.90;;;;;;4990490;28;20046;-79
2022/06/03 01:13:32;;;;;;;8.03;5.00;;;9.60;99.90;;;;;;4985356;28;20076;-79
2022/06/03 01:16:07;;;;;;;9.47;5.40;;;9.60;99.90;;;;;;5005757;28;20416;-79
2022/06/03 01:18:46;;;;;;;7.73;5.60;;;9.60;99.90;;;;;;4999588;28;20558;-80
2022/06/03 01:21:29;;;;;;;8.47;5.43;;;9.50;99.90;;;;;;4986558;28;20061;-79
2022/06/03 01:24:32;;;;;;;10.17;5.70;;;9.60;99.90;;;;;;4998521;28;20070;-80
2022/06/03 01:27:34;;;;;;;10.03;5.53;;;9.50;99.90;;;;;;5010392;28;20084;-80
2022/06/03 01:30:18;;;;;;;11.97;6.03;;;9.50;99.90;;;;;;4983744;28;20034;-80
2022/06/03 01:33:16;;;;;;;8.50;6.13;;;9.60;99.90;;;;;;4976122;28;20084;-80
2022/06/03 01:36:27;;;;;;;6.87;5.57;;;9.50;99.90;;;;;;4993865;28;20050;-79
2022/06/03 01:39:06;;;;;;;8.77;6.13;;;9.50;99.90;;;;;;4954535;28;20061;-80
2022/06/03 01:41:53;;;;;;;10.93;6.10;;;9.50;99.90;;;;;;4987027;28;20069;-79
2022/06/03 01:44:49;;;;;;;11.27;5.77;;;9.40;99.90;;;;;;4983399;28;20137;-79
2022/06/03 01:47:49;;;;;;;11.23;6.43;;;9.40;99.90;;;;;;4992768;28;20042;-80
2022/06/03 01:50:31;;;;;;;11.47;6.60;;;9.40;99.90;;;;;;4984058;28;20069;-80
2022/06/03 01:53:27;;;;;;;10.07;6.50;;;9.40;99.90;;;;;;4987501;28;20038;-80
2022/06/03 01:56:17;;;;;;;10.80;6.40;;;9.40;99.90;;;;;;4988133;28;20049;-80
2022/06/03 01:59:09;;;;;;;8.13;6.30;;;9.40;99.90;;;;;;4976797;28;20095;-80
2022/06/03 02:02:11;;;;;;;10.07;6.73;;;9.30;99.90;;;;;;4992741;28;20048;-80
2022/06/03 02:04:56;;;;;;;7.03;6.20;;;9.30;99.90;;;;;;4942575;28;20056;-80
2022/06/03 02:07:54;;;;;;;9.90;6.47;;;9.30;99.90;;;;;;4993068;28;20057;-80
2022/06/03 02:10:41;;;;;;;9.07;5.83;;;9.20;99.90;;;;;;4992932;28;20131;-79
2022/06/03 02:13:43;;;;;;;8.00;5.77;;;9.20;99.90;;;;;;4976104;28;20502;-80
2022/06/03 02:16:32;;;;;;;8.77;6.67;;;9.20;99.90;;;;;;4993654;28;20046;-80
2022/06/03 02:19:22;;;;;;;9.80;7.00;;;9.20;99.90;;;;;;4992237;28;20061;-80
2022/06/03 02:22:06;;;;;;;10.73;7.33;;;9.20;99.90;;;;;;4992670;28;20120;-79
2022/06/03 02:25:08;;;;;;;12.43;6.63;;;9.20;99.90;;;;;;4979777;28;20552;-79
2022/06/03 02:27:50;;;;;;;11.70;6.53;;;9.20;99.90;;;;;;4954531;28;20053;-79
2022/06/03 02:30:40;;;;;;;8.27;6.13;;;9.10;99.90;;;;;;4992630;28;20385;-79
2022/06/03 02:33:24;;;;;;;7.97;6.60;;;9.10;99.90;;;;;;5004033;28;20509;-80
2022/06/03 02:36:36;;;;;;;10.50;6.45;;;9.10;99.90;;;;;;5001592;28;20384;-80
2022/06/03 02:39:20;;;;;;;10.23;6.77;;;9.10;99.90;;;;;;4923252;29;20059;-80
2022/06/03 02:42:08;;;;;;;11.00;6.80;;;9.10;99.90;;;;;;4922726;29;20782;-79
2022/06/03 02:44:53;;;;;;;10.10;7.33;;;9.00;99.90;;;;;;4969440;28;20060;-80
2022/06/03 02:47:40;;;;;;;9.37;8.00;;;9.00;99.90;;;;;;4972853;28;20042;-80
2022/06/03 02:50:23;;;;;;;10.37;7.77;;;9.00;99.90;;;;;;4988768;28;20064;-79
2022/06/03 02:53:18;;;;;;;9.07;6.80;;;9.00;99.90;;;;;;4997408;28;20052;-79
2022/06/03 02:56:05;;;;;;;11.93;7.23;;;9.00;99.90;;;;;;4989014;28;20073;-79
2022/06/03 02:58:51;;;;;;;9.27;7.17;;;8.90;99.90;;;;;;4986834;28;20443;-80
2022/06/03 03:01:42;;;;;;;13.20;7.53;;;8.90;99.90;;;;;;4973025;28;20519;-80
2022/06/03 03:04:21;;;;;;;14.43;7.67;;;8.90;99.90;;;;;;4982356;28;20530;-79
2022/06/03 03:07:20;;;;;;;10.37;7.43;;;8.90;99.90;;;;;;4983042;28;20057;-79
2022/06/03 03:10:07;;;;;;;11.47;7.80;;;8.90;99.90;;;;;;4979555;28;20042;-79
2022/06/03 03:13:23;;;;;;;10.57;7.13;;;8.90;99.90;;;;;;4991758;28;20104;-79
2022/06/03 03:16:20;;;;;;;10.37;7.20;;;8.90;99.90;;;;;;4915480;28;20071;-79
2022/06/03 03:19:26;;;;;;;12.23;7.47;;;8.90;99.90;;;;;;4987726;28;20042;-80
2022/06/03 03:22:16;;;;;;;11.57;7.87;;;8.90;99.90;;;;;;4990395;28;20078;-79
2022/06/03 03:25:09;;;;;;;12.73;8.27;;;8.90;99.90;;;;;;4976061;28;20053;-79
2022/06/03 03:28:03;;;;;;;10.53;7.57;;;8.90;99.90;;;;;;4987661;28;20041;-80
2022/06/03 03:30:38;;;;;;;14.75;8.75;;;8.90;99.90;;;;;;4985503;28;20460;-79
2022/06/03 03:33:27;;;;;;;15.00;8.80;;;8.90;99.90;;;;;;4964001;28;20108;-78
2022/06/03 03:36:19;;;;;;;10.13;8.33;;;8.90;99.90;;;;;;4986744;28;20046;-79
2022/06/03 03:39:35;;;;;;;12.03;9.13;;;8.90;99.90;;;;;;4941163;28;20038;-79
2022/06/03 03:42:44;;;;;;;12.90;8.83;;;8.90;99.90;;;;;;4886756;29;20071;-79
2022/06/03 03:45:38;;;;;;;12.27;8.67;;;8.90;99.90;;;;;;4830778;29;20052;-78
2022/06/03 03:48:44;;;;;;;15.35;9.30;;;9.00;99.90;;;;;;4990950;28;20116;-80
2022/06/03 03:51:26;;;;;;;18.33;9.33;;;9.00;99.90;;;;;;4982303;28;20400;-79
2022/06/03 03:54:44;;;;;;;13.83;9.03;;;9.00;99.90;;;;;;4986507;28;20041;-78
2022/06/03 03:57:47;;;;;;;13.87;8.63;;;9.10;99.90;;;;;;4999205;28;20042;-79
2022/06/03 04:00:34;;;;;;;14.53;9.20;;;9.20;99.90;;;;;;4986779;28;20092;-80
2022/06/03 04:03:45;;;;;;;10.53;8.20;;;9.10;99.90;;;;;;4996611;28;20453;-80
2022/06/03 04:06:39;;;;;;;13.63;8.23;;;9.20;99.90;;;;;;4976058;28;20042;-79
2022/06/03 04:10:02;;;;;;;14.07;9.50;;;9.20;99.90;;;;;;4983109;28;20518;-79
2022/06/03 04:12:54;;;;;;;12.87;8.67;;;9.20;99.90;;;;;;4899463;29;20055;-79
2022/06/03 04:16:07;;;;;;;14.40;9.10;;;9.30;99.90;;;;;;4983559;28;20100;-78
2022/06/03 04:19:00;;;;;;;12.93;9.13;;;9.30;99.90;;;;;;4984672;28;20049;-77
2022/06/03 04:21:49;;;;;;;11.70;8.50;;;9.40;99.90;;;;;;4979965;28;20038;-78
2022/06/03 04:24:38;;;;;;;13.33;9.57;;;9.50;99.90;;;;;;4978167;28;20423;-77
2022/06/03 04:27:40;;;;;;;13.37;9.47;;;9.60;99.90;;;;;;4991969;28;20096;-77
2022/06/03 04:30:45;;;;;;;16.30;9.57;;;9.60;99.90;;;;;;4977554;28;20084;-79
2022/06/03 04:33:53;;;;;;;10.90;8.93;;;9.70;99.90;;;;;;5004848;28;20443;-77
2022/06/03 04:36:54;;;;;;;13.30;9.50;;;9.80;99.90;;;;;;5002002;28;20072;-78
2022/06/03 04:39:54;;;;;;;12.27;8.93;;;9.80;99.90;;;;;;4986997;28;20050;-77
2022/06/03 04:43:15;;;;;;;12.83;9.63;;;9.90;99.90;;;;;;4975851;28;20113;-79
2022/06/03 04:46:14;;;;;;;12.73;8.63;;;9.90;99.90;;;;;;4992314;28;20129;-79
2022/06/03 04:49:27;;;;;;;11.37;8.60;;;10.00;99.90;;;;;;4975732;28;20200;-79
2022/06/03 04:52:40;;;;;;;14.00;10.00;;;10.10;99.90;;;;;;4989258;28;20129;-79
2022/06/03 04:55:57;;;;;;;15.60;9.27;;;10.20;99.90;;;;;;4977772;28;20566;-77
2022/06/03 04:58:56;;;;;;;10.47;8.47;;;10.20;99.90;;;;;;4904191;29;20446;-80
2022/06/03 05:02:10;;;;;;;16.63;9.97;;;10.30;99.90;;;;;;4987619;28;20129;-79
2022/06/03 05:05:27;;;;;;;16.43;10.33;;;10.40;99.90;;;;;;4991591;28;20045;-78
2022/06/03 05:11:23;;;;;;;12.27;8.97;;;10.40;99.90;;;;;;5188889;27;20409;-79
2022/06/03 05:14:25;;;;;;;12.60;9.15;;;10.50;99.90;;;;;;5168128;27;20047;-80
2022/06/03 05:17:32;;;;;;;13.07;9.20;;;10.60;99.90;;;;;;5172188;27;20113;-78
2022/06/03 05:20:29;;;;;;;12.37;8.13;;;10.60;99.90;;;;;;5124975;27;20074;-77
2022/06/03 05:23:31;;;;;;;12.50;9.13;;;10.70;99.90;;;;;;5148282;27;20445;-77
2022/06/03 05:26:33;;;;;;;12.37;9.10;;;10.80;99.90;;;;;;5134004;27;20054;-78
2022/06/03 05:29:27;;;;;;;10.80;9.10;;;11.10;99.90;;;;;;5107597;27;20047;-76
2022/06/03 05:32:29;;;;;;;16.88;9.30;;;11.30;99.90;;;;;;5155771;27;20189;-76
2022/06/03 05:35:28;;;;;;;13.93;8.33;;;11.50;99.90;;;;;;5112956;27;20095;-78
2022/06/03 05:38:17;;;;;;;11.90;8.30;;;11.70;99.90;;;;;;5128135;27;20047;-79
2022/06/03 05:41:02;;;;;;;9.53;7.90;;;11.80;99.90;;;;;;5137912;27;20420;-78
2022/06/03 05:43:48;;;;;;;12.07;8.37;;;11.90;99.90;;;;;;5138823;27;20170;-78
2022/06/03 05:46:31;;;;;;;11.87;8.33;;;12.00;99.90;;;;;;5149412;27;20042;-79
2022/06/03 05:49:18;;;;;;;12.53;8.37;;;12.10;99.90;;;;;;5157385;27;20062;-79
2022/06/03 05:52:10;;;;;;;11.17;8.57;;;12.20;99.90;;;;;;5160440;27;20084;-78
2022/06/03 05:54:47;;;;;;;11.77;8.53;;;12.30;99.90;;;;;;5158051;27;20043;-78
2022/06/03 05:57:23;;;;;;;11.00;8.47;;;12.40;99.90;;;;;;5163692;27;20515;-79
2022/06/03 06:00:07;;;;;;;12.03;7.70;;;12.40;99.90;;;;;;5125820;27;20043;-79
2022/06/03 06:02:40;;;;;;;9.00;7.50;;;12.50;99.90;;;;;;5159817;27;20051;-78
2022/06/03 06:05:17;;;;;;;15.90;7.90;;;12.60;99.90;;;;;;5148358;27;20600;-77
2022/06/03 06:07:51;;;;;;;8.17;6.53;;;12.80;99.90;;;;;;5147280;27;20034;-79
2022/06/03 06:10:26;;;;;;;;;;;12.90;99.90;;;;;;5147933;27;20085;-78
2022/06/03 06:13:05;;;;;;;8.97;6.57;;;13.00;99.90;;;;;;5178152;27;19919;-78
2022/06/03 06:15:55;;;;;;;8.83;6.30;;;13.20;99.90;;;;;;5149180;27;20468;-77
2022/06/03 06:18:40;;;;;;;9.53;5.57;;;13.20;99.90;;;;;;5159264;27;20053;-78
2022/06/03 06:21:20;;;;;;;8.40;5.77;;;13.20;99.90;;;;;;5140798;27;20039;-79
2022/06/03 06:23:51;;;;;;;8.27;5.80;;;13.20;99.90;;;;;;5137894;27;20039;-77
2022/06/03 06:26:40;;;;;;;8.53;6.17;;;13.30;99.90;;;;;;5148710;27;20043;-79
2022/06/03 06:29:44;;;;;;;7.33;5.40;;;13.40;99.90;;;;;;5147551;27;20039;-81
2022/06/03 06:32:56;;;;;;;7.97;5.40;;;13.90;99.90;;;;;;5153715;27;20046;-78
2022/06/03 06:35:59;;;;;;;7.60;5.60;;;14.10;99.90;;;;;;5147449;27;20050;-80
2022/06/03 06:38:33;;;;;;;8.83;6.67;;;14.00;99.90;;;;;;5135173;27;20038;-78
2022/06/03 06:41:15;;;;;;;9.70;6.22;;;14.10;99.90;;;;;;5130111;27;20042;-77
2022/06/03 06:43:48;;;;;;;12.03;6.67;;;14.00;99.90;;;;;;5126839;27;20056;-79
2022/06/03 06:46:25;;;;;;;12.38;6.95;;;14.00;99.90;;;;;;5132516;27;20138;-85
2022/06/03 06:48:59;;;;;;;8.87;6.27;;;13.90;99.90;;;;;;5144562;27;20122;-77
2022/06/03 06:51:59;;;;;;;9.47;5.83;;;14.00;99.90;;;;;;5149879;27;20114;-77
2022/06/03 06:54:36;;;;;;;9.00;5.60;;;14.20;99.90;;;;;;5139245;27;20074;-78
2022/06/03 06:57:07;;;;;;;10.10;5.60;;;14.20;99.90;;;;;;5118658;27;20336;-80
2022/06/03 06:59:38;;;;;;;10.20;5.87;;;14.40;99.90;;;;;;5123903;27;20546;-77
2022/06/03 07:02:10;;;;;;;6.90;5.70;;;14.50;99.90;;;;;;5141105;27;20608;-78
2022/06/03 07:04:41;;;;;;;13.97;5.90;;;14.70;99.90;;;;;;5142993;27;20133;-79
2022/06/03 07:07:15;;;;;;;11.03;6.17;;;15.00;99.90;;;;;;5133232;27;20556;-80
2022/06/03 07:09:50;;;;;;;9.70;5.17;;;15.10;99.90;;;;;;5102050;27;20454;-78
2022/06/03 07:12:19;;;;;;;9.83;5.60;;;15.10;99.90;;;;;;5142506;27;20039;-78
2022/06/03 07:14:59;;;;;;;9.37;4.60;;;15.10;99.90;;;;;;5131541;27;20083;-79
2022/06/03 07:20:37;;;;;;;8.27;4.20;;;15.10;99.90;;;;;;5117467;27;20038;-77
2022/06/03 07:23:11;;;;;;;9.23;4.27;;;15.10;99.90;;;;;;5115640;27;20046;-78
2022/06/03 07:25:44;;;;;;;8.45;4.45;;;15.10;99.90;;;;;;5129311;27;20046;-77
2022/06/03 07:28:26;;;;;;;8.20;4.15;;;15.10;99.90;;;;;;5127825;27;20053;-79
2022/06/03 07:30:58;;;;;;;8.63;4.57;;;15.20;99.90;;;;;;5134272;27;20039;-80
2022/06/03 07:33:39;;;;;;;7.90;4.13;;;15.20;99.90;;;;;;5122352;27;20061;-78
2022/06/03 07:36:13;;;;;;;8.27;4.37;;;15.30;99.90;;;;;;5117020;27;20039;-78
2022/06/03 07:38:46;;;;;;;9.77;4.20;;;15.40;99.90;;;;;;5128172;27;20046;-78
2022/06/03 07:41:19;;;;;;;5.87;4.33;;;15.40;99.90;;;;;;5128562;27;20047;-80
2022/06/03 07:44:01;;;;;;;8.18;4.63;;;15.40;99.90;;;;;;5123074;27;20150;-78
2022/06/03 07:46:41;;;;;;;6.43;4.37;;;15.50;99.90;;;;;;5118486;27;20065;-79
2022/06/03 07:49:07;;;;;;;7.10;4.47;;;15.50;99.90;;;;;;5132879;27;20039;-78
2022/06/03 07:51:38;;;;;;;7.50;4.20;;;15.60;99.90;;;;;;5134496;27;20059;-77
2022/06/03 07:54:07;;;;;;;6.67;4.43;;;15.60;99.90;;;;;;5142934;27;20487;-80
2022/06/03 07:56:35;;;;;;;8.23;4.20;;;15.70;99.90;;;;;;5111026;27;20047;-81
2022/06/03 07:59:09;;;;;;;6.93;4.30;;;15.80;99.90;;;;;;5127089;27;20031;-78
2022/06/03 08:01:39;;;;;;;5.97;4.13;;;15.80;99.90;;;;;;5114593;27;20070;-80
2022/06/03 08:04:06;;;;;;;8.60;4.33;;;15.90;99.90;;;;;;5133603;27;20046;-80
2022/06/03 08:12:07;;;;;;;9.07;4.30;;;16.00;99.90;;;;;;5139347;27;20122;-79
2022/06/03 08:14:32;;;;;;;6.80;4.10;;;16.10;99.90;;;;;;5122409;27;20122;-79
2022/06/03 08:17:03;;;;;;;7.53;4.20;;;16.20;99.90;;;;;;5141265;27;20113;-78
2022/06/03 08:19:32;;;;;;;7.47;4.20;;;16.40;99.90;;;;;;5146495;27;20043;-82
2022/06/03 08:22:00;;;;;;;7.23;4.70;;;16.40;99.90;;;;;;5118359;27;20054;-80
2022/06/03 08:24:32;;;;;;;9.20;4.80;;;16.50;99.90;;;;;;5140028;27;20473;-77
2022/06/03 08:27:03;;;;;;;8.33;4.23;;;16.70;99.90;;;;;;5129141;27;20064;-79
2022/06/03 08:29:34;;;;;;;6.67;3.83;;;16.70;99.90;;;;;;5133679;27;20031;-80
2022/06/03 08:32:07;;;;;;;7.43;4.17;;;16.80;99.90;;;;;;5126718;27;20042;-78
2022/06/03 08:34:38;;;;;;;8.97;4.30;;;16.90;99.90;;;;;;5139536;27;20043;-79
2022/06/03 08:37:06;;;;;;;6.67;3.80;;;17.00;99.90;;;;;;5110431;27;20126;-79
2022/06/03 08:39:33;;;;;;;6.47;4.27;;;17.10;99.90;;;;;;5128393;27;20110;-79
2022/06/03 08:42:15;;;;;;;6.03;4.30;;;17.10;99.90;;;;;;5123705;27;20555;-77
2022/06/03 08:45:04;;;;;;;6.53;4.40;;;17.20;99.90;;;;;;5117885;27;20049;-78
2022/06/03 08:47:41;;;;;;;7.53;4.33;;;17.20;99.90;;;;;;5122446;27;20484;-80
2022/06/03 08:50:11;;;;;;;9.57;3.90;;;17.40;99.90;;;;;;5121669;27;20095;-78
2022/06/03 08:52:48;;;;;;;7.33;4.27;;;17.40;99.90;;;;;;5126334;27;20496;-79
2022/06/03 08:55:38;;;;;;;6.23;4.00;;;17.50;99.90;;;;;;5112585;27;20064;-79
2022/06/03 08:58:11;;;;;;;5.67;3.90;;;17.60;99.90;;;;;;5117110;27;20045;-77
2022/06/03 09:00:44;;;;;;;;;;;17.70;99.90;;;;;;5128571;27;20038;-76
2022/06/03 09:03:15;;;;;;;7.43;3.97;;;17.80;99.90;;;;;;5143599;27;20656;-81
2022/06/03 09:05:46;;;;;;;7.17;4.30;;;18.10;99.90;;;;;;5113861;27;20403;-79
2022/06/03 09:08:19;;;;;;;7.27;3.90;;;18.10;99.90;;;;;;5111629;27;20046;-79
2022/06/03 09:10:50;;;;;;;5.90;3.40;;;18.20;99.90;;;;;;5140627;27;20050;-81
2022/06/03 09:13:25;;;;;;;5.97;3.70;;;18.30;99.90;;;;;;5111496;27;20043;-84
2022/06/03 09:15:53;;;;;;;9.63;3.90;;;18.50;99.90;;;;;;5110037;27;20084;-79
2022/06/03 09:18:26;;;;;;;8.00;3.87;;;18.60;99.90;;;;;;5108471;27;20066;-80
2022/06/03 09:20:57;;;;;;;9.52;3.35;;;18.80;99.90;;;;;;5142548;27;20042;-79
2022/06/03 09:23:25;;;;;;;7.07;3.17;;;18.90;99.90;;;;;;5120584;27;20142;-83
2022/06/03 09:25:55;;;;;;;6.37;3.30;;;19.00;99.90;;;;;;5138108;27;20051;-83
2022/06/03 09:28:24;;;;;;;6.80;3.30;;;19.30;99.90;;;;;;5131193;27;20039;-78
2022/06/03 09:30:51;;;;;;;5.43;3.40;;;19.50;99.90;;;;;;5138473;27;20504;-79
2022/06/03 09:33:21;;;;;;;5.20;3.40;;;19.60;99.90;;;;;;5135455;27;20042;-80
2022/06/03 09:35:51;;;;;;;7.80;3.53;;;19.80;99.90;;;;;;5121898;27;20103;-81
2022/06/03 09:38:21;;;;;;;7.40;3.00;;;19.90;99.90;;;;;;5108336;27;20046;-78
2022/06/03 09:40:48;;;;;;;4.33;3.50;;;20.20;99.90;;;;;;5138256;27;20538;-80
2022/06/03 09:43:18;;;;;;;4.73;3.10;;;20.20;99.90;;;;;;5110086;27;20055;-77
2022/06/03 09:45:46;;;;;;;8.40;3.23;;;20.40;99.90;;;;;;5130647;27;20068;-78
2022/06/03 09:48:14;;;;;;;6.40;2.73;;;20.50;98.70;;;;;;5130123;27;20087;-76
2022/06/03 09:50:45;;;;;;;5.67;3.20;;;20.50;98.70;;;;;;5128437;27;20035;-79
2022/06/03 09:53:11;;;;;;;3.27;2.00;;;20.70;98.70;;;;;;5135056;27;20134;-78
2022/06/03 09:55:40;;;;;;;5.83;2.60;;;20.80;97.90;;;;;;5124702;27;20963;-79
2022/06/03 09:58:10;;;;;;;5.10;2.83;;;21.00;98.40;;;;;;5141389;27;20119;-79
2022/06/03 10:00:40;;;;;;;3.63;2.20;;;21.30;99.90;;;;;;5118010;27;20091;-79
2022/06/03 10:03:06;;;;;;;7.90;2.60;;;21.60;97.40;;;;;;5142783;27;20039;-81
2022/06/03 10:05:32;;;;;;;4.37;2.00;;;21.70;96.90;;;;;;5112953;27;20042;-80
2022/06/03 10:08:02;;;;;;;3.70;2.27;;;22.00;96.10;;;;;;5114618;27;20070;-80
2022/06/03 10:13:13;;;;;;;8.33;2.50;;;22.40;94.60;;;;;;5122527;27;20109;-77
2022/06/03 10:15:45;;;;;;;4.50;1.90;;;22.30;91.50;;;;;;5124616;27;20046;-77
2022/06/03 10:18:18;;;;;;;15.67;2.80;;;22.40;93.10;;;;;;5102172;27;20047;-79
2022/06/03 10:20:45;;;;;;;6.32;2.42;;;22.40;92.00;;;;;;5118022;27;20035;-79
2022/06/03 10:23:13;;;;;;;4.67;1.90;;;22.50;90.80;;;;;;5116898;27;20050;-83
2022/06/03 10:25:41;;;;;;;5.00;2.13;;;22.50;90.60;;;;;;5139547;27;20046;-79
2022/06/03 10:28:10;;;;;;;4.73;2.80;;;22.60;94.50;;;;;;5156642;27;20051;-80
2022/06/03 10:30:39;;;;;;;4.30;2.03;;;22.70;92.40;;;;;;5128710;27;20039;-81
2022/06/03 10:33:06;;;;;;;5.23;2.20;;;22.80;92.10;;;;;;5130321;27;20043;-83
2022/06/03 10:35:38;;;;;;;3.17;2.07;;;22.90;92.20;;;;;;5132955;27;20042;-81
2022/06/03 10:38:06;;;;;;;4.53;2.47;;;23.10;93.50;;;;;;5144030;27;20068;-80
2022/06/03 10:40:34;;;;;;;4.97;2.40;;;23.40;93.00;;;;;;5118997;27;20496;-79
2022/06/03 10:43:03;;;;;;;2.20;1.57;;;23.50;92.20;;;;;;5130718;27;20050;-80
2022/06/03 10:45:31;;;;;;;5.67;2.07;;;23.60;91.90;;;;;;5127275;27;20603;-79
2022/06/03 10:47:58;;;;;;;9.45;2.53;;;23.80;90.00;;;;;;5120168;27;20047;-78
2022/06/03 10:50:29;;;;;;;6.10;2.30;;;23.70;89.30;;;;;;5128303;27;20053;-81
2022/06/03 11:01:32;;;;;;;5.50;2.00;;;23.90;88.80;;;;;;5142028;27;20049;-80
2022/06/03 11:03:59;;;;;;;3.97;1.98;;;24.10;90.70;;;;;;5110976;27;20061;-81
2022/06/03 11:06:27;;;;;;;7.05;2.38;;;24.30;90.90;;;;;;5128893;27;20035;-78
2022/06/03 11:08:58;;;;;;;4.30;2.13;;;24.60;91.40;;;;;;5139206;27;20034;-77
2022/06/03 11:11:33;;;;;;;3.58;1.85;;;24.80;90.90;;;;;;5141051;27;20117;-79
2022/06/03 11:14:28;;;;;;;3.28;1.67;;;24.90;85.00;;;;;;5114893;27;20070;-79
2022/06/03 11:17:00;;;;;;;2.25;1.55;;;25.00;86.10;;;;;;5130785;27;20404;-79
2022/06/03 11:19:31;;;;;;;5.68;2.10;;;25.00;88.10;;;;;;5128225;27;20169;-81
2022/06/03 11:22:26;;;;;;;3.35;1.85;;;25.10;80.80;;;;;;5136211;27;20118;-80
2022/06/03 11:25:03;;;;;;;4.07;1.77;;;25.10;82.00;;;;;;5118050;27;20041;-79
2022/06/03 11:27:44;;;;;;;5.00;1.58;;;24.90;80.90;;;;;;5144760;27;20042;-79
2022/06/03 11:30:16;;;;;;;7.55;2.13;;;24.90;82.00;;;;;;5120831;27;20054;-81
2022/06/03 11:32:44;;;;;;;3.35;1.70;;;24.90;81.40;;;;;;5136000;27;20047;-79
2022/06/03 11:35:19;;;;;;;4.10;1.70;;;25.00;79.50;;;;;;5130237;27;20046;-78
2022/06/03 11:37:50;;;;;;;2.63;1.70;;;25.10;84.20;;;;;;5105427;27;20042;-80
2022/06/03 11:40:22;;;;;;;4.68;1.83;;;25.40;81.40;;;;;;5134954;27;20034;-80
2022/06/03 11:42:55;;;;;;;4.22;2.00;;;25.40;76.90;;;;;;5139002;27;20035;-76
2022/06/03 11:45:26;;;;;;;3.70;1.88;;;25.50;80.30;;;;;;5136707;27;20038;-79
2022/06/03 11:47:55;;;;;;;6.72;1.98;;;25.60;81.50;;;;;;5121900;27;20043;-80
2022/06/03 11:50:25;;;;;;;6.53;1.90;;;25.60;81.60;;;;;;5124702;27;20049;-84
2022/06/03 11:52:53;;;;;;;3.25;2.03;;;25.50;79.00;;;;;;5133320;27;20119;-77
2022/06/03 11:55:21;;;;;;;2.97;1.85;;;25.60;78.20;;;;;;5129545;27;20038;-77
2022/06/03 11:57:56;;;;;;;4.50;2.03;;;25.40;74.70;;;;;;5126671;27;20057;-79
2022/06/03 12:00:24;;;;;;;4.65;2.30;;;25.40;74.20;;;;;;5117869;27;20083;-78
2022/06/03 12:03:00;;;;;;;3.67;2.28;;;25.40;75.90;;;;;;5115341;27;20053;-78
2022/06/03 12:05:30;;;;;;;5.55;2.30;;;24.90;76.30;;;;;;5115336;27;20039;-83
2022/06/03 12:08:04;;;;;;;3.83;2.00;;;24.70;73.60;;;;;;5140044;27;20038;-79
2022/06/03 12:10:43;;;;;;;6.55;2.15;;;24.70;77.00;;;;;;5141081;27;20031;-78
2022/06/03 12:13:17;;;;;;;4.65;1.67;;;24.80;78.80;;;;;;5142217;27;20519;-77
2022/06/03 12:16:00;;;;;;;5.63;2.00;;;24.90;80.00;;;;;;5122085;27;20045;-78
2022/06/03 12:18:58;;;;;;;3.55;1.45;;;25.10;78.50;;;;;;5124721;27;20122;-80
2022/06/03 12:21:48;;;;;;;4.82;2.10;;;25.10;80.20;;;;;;5114140;27;20039;-75
2022/06/03 12:24:49;;;;;;;5.13;1.50;;;25.00;76.80;;;;;;5141877;27;20091;-80
2022/06/03 12:27:32;;;;;;;4.75;1.92;;;25.20;75.50;;;;;;5111775;27;21003;-77
2022/06/03 12:30:35;;;;;;;8.02;2.47;;;25.30;71.70;;;;;;5127422;27;20551;-78
2022/06/03 12:33:04;;;;;;;4.83;2.20;;;25.30;72.70;;;;;;5126843;27;20115;-79
2022/06/03 12:36:00;;;;;;;2.55;1.75;;;25.20;73.10;;;;;;5129031;27;20296;-80
2022/06/03 12:38:30;;;;;;;3.78;1.88;;;25.30;77.50;;;;;;5125041;27;20050;-81
2022/06/03 12:40:57;;;;;;;4.45;2.00;;;25.40;70.60;;;;;;5109586;27;20030;-78
2022/06/03 12:43:29;;;;;;;4.95;2.13;;;25.40;74.60;;;;;;5135961;27;20038;-78
2022/06/03 12:46:01;;;;;;;6.80;1.95;;;25.40;73.70;;;;;;5142230;27;20121;-80
2022/06/03 12:48:37;;;;;;;4.25;1.50;;;25.50;73.80;;;;;;5126357;27;20408;-78
2022/06/03 12:51:21;;;;;;;6.82;1.55;;;25.70;78.00;;;;;;5142209;27;20399;-78
2022/06/03 12:53:48;;;;;;;9.52;2.10;;;25.80;71.50;;;;;;5120435;27;20039;-79
2022/06/03 12:56:43;;;;;;;3.40;1.60;;;25.80;68.70;;;;;;5140050;27;20063;-79
2022/06/03 12:59:21;;;;;;;3.95;1.52;;;25.70;75.20;;;;;;5084388;27;20477;-81
2022/06/03 13:02:02;;;;;;;5.63;1.90;;;25.80;75.90;;;;;;5127674;27;20043;-80
2022/06/03 13:05:05;;;;;;;2.80;1.40;;;25.90;73.20;;;;;;5144159;27;20450;-79
2022/06/03 13:07:34;;;;;;;4.18;2.00;;;25.90;72.00;;;;;;5111552;27;21313;-79
2022/06/03 13:10:20;;;;;;;6.05;1.77;;;26.00;71.20;;;;;;5138192;27;20114;-79
2022/06/03 13:12:47;;;;;;;7.95;2.00;;;26.10;71.40;;;;;;5124957;27;20053;-83
2022/06/03 13:15:45;;;;;;;3.03;1.67;;;25.90;73.40;;;;;;5136010;27;20444;-78
2022/06/03 13:18:18;;;;;;;3.70;1.80;;;25.90;73.70;;;;;;5139184;27;20441;-78
2022/06/03 13:20:46;;;;;;;4.78;1.52;;;25.80;72.40;;;;;;5124447;27;20133;-77
2022/06/03 13:23:32;;;;;;;3.17;1.80;;;25.80;73.30;;;;;;5133867;27;20062;-77
2022/06/03 13:26:31;;;;;;;3.50;1.50;;;25.80;72.80;;;;;;5118698;27;20066;-77
2022/06/03 13:28:59;;;;;;;2.03;1.52;;;25.80;74.50;;;;;;5113347;27;20074;-77
2022/06/03 13:31:27;;;;;;;2.72;1.58;;;26.00;72.70;;;;;;5126824;27;20031;-77
2022/06/03 13:34:16;;;;;;;5.10;1.77;;;26.00;70.60;;;;;;5141237;27;20049;-78
2022/06/03 13:37:04;;;;;;;3.25;1.30;;;26.00;67.10;;;;;;5134946;27;20575;-78
2022/06/03 13:40:15;;;;;;;3.15;1.42;;;26.10;68.50;;;;;;5135706;27;20043;-76
2022/06/03 13:43:00;;;;;;;3.55;1.65;;;26.20;69.80;;;;;;5141828;27;20095;-75
2022/06/03 13:45:43;;;;;;;3.63;1.58;;;26.20;67.00;;;;;;5142584;27;20066;-77
2022/06/03 13:48:11;;;;;;;;;;;26.10;66.00;;;;;;5127140;27;20564;-76
2022/06/03 13:50:39;;;;;;;7.20;1.80;;;26.00;65.80;;;;;;5126920;27;20358;-78
2022/06/03 13:53:06;;;;;;;3.03;1.50;;;26.00;67.10;;;;;;5138300;27;20051;-76
2022/06/03 13:55:49;;;;;;;3.28;1.30;;;26.00;70.20;;;;;;5139775;27;20039;-77
2022/06/03 13:58:19;;;;;;;2.58;1.13;;;26.00;68.50;;;;;;5136453;27;20049;-76
2022/06/03 14:00:56;;;;;;;2.25;1.30;;;26.10;69.60;;;;;;5126814;27;20043;-78
2022/06/03 14:03:26;;;;;;;4.45;1.20;;;26.20;72.00;;;;;;5137082;27;20117;-75
2022/06/03 14:05:58;;;;;;;3.20;1.20;;;26.30;72.50;;;;;;5123065;27;20123;-76
2022/06/03 14:08:28;;;;;;;4.65;1.50;;;26.30;65.90;;;;;;5137259;27;20087;-76
2022/06/03 14:11:01;;;;;;;4.10;1.38;;;26.10;67.20;;;;;;5130980;27;20077;-76
2022/06/03 14:13:32;;;;;;;;;;;26.00;65.00;;;;;;5138429;27;20125;-75
2022/06/03 14:16:03;;;;;;;2.78;1.50;;;25.80;66.00;;;;;;5140501;27;19923;-77
2022/06/03 14:18:47;;;;;;;3.88;1.52;;;25.80;64.50;;;;;;5141401;27;20114;-77
2022/06/03 14:21:20;;;;;;;7.05;1.50;;;25.80;65.10;;;;;;5121509;27;20087;-77
2022/06/03 14:23:49;;;;;;;3.50;1.42;;;25.60;68.70;;;;;;5134678;27;20035;-78
2022/06/03 14:26:19;;;;;;;3.03;1.27;;;25.40;67.90;;;;;;5139095;27;20389;-78
2022/06/03 14:28:50;;;;;;;3.35;1.23;;;25.20;66.90;;;;;;5128240;27;20482;-77